Terminal Aerodrome Forecast
Issued by NWS Mobile, AL

Home | Current Version | Previous Version | Text Only | Print | Product List | Glossary On
Versions: 1 2 3 4 5 6 7 8 9 10 11 12
000
FTUS44 KMOB 260500
TAFPNS
TAF
KPNS 260529Z 2606/2706 34004KT P6SM SKC
     FM260900 00000KT 5SM BR SKC
     FM261500 32003KT P6SM SKC=

USA.gov is the U.S. government's official web portal to all federal, state and local government web resources and services.